Armington, IL (61721)

1:17 PM CST on February 21, 2018 (GMT -0600)
BFE Armington | | Change Station
Active Advisory: Flood Warning

Elev 627 ft 40.34 °N, 89.31 °W | Updated 13 seconds ago

Overcast
Overcast
30.7 °F
Feels Like 26 °F
N
4.2
Wind Variable Wind from West

Today
High -- | Low -- °F
--% Chance of Precip.
Yesterday
High -- | Low -- °F
Precip. -- in
Pressure 30.55 in
Visibility 10.0 miles
Clouds Overcast 1400 ft
Windchill 26 °F
Dew Point 29 °F
Humidity 92%
Rainfall 0.00 in
Snow Depth Not available.
6:42 AM 5:39 PM
Waxing Crescent, 33% visible
METAR KAAA 211855Z AUTO 01008KT 10SM OVC014 00/M02 A3055 RMK AO2 T10051017
Pressure 30.55 in
Visibility 10.0 miles
Clouds Overcast 1400 ft
Windchill 26 °F
Dew Point 29 °F
Humidity 92%
Rainfall 0.00 in
Snow Depth Not available.
6:42 AM 5:39 PM
Waxing Crescent, 33% visible
METAR KAAA 211855Z AUTO 01008KT 10SM OVC014 00/M02 A3055 RMK AO2 T10051017

Get Your Daily Forecast Email!

Thanks for signing up!

Be on the lookout for a verification email in your inbox.

You'll start receiving severe weather alerts in your inbox..

×

10-Day Weather Forecast

Almanac

Astronomy

Feb. 21, 2018 Rise Set
Actual Time
Civil Twilight
Nautical Twilight
Astronomical Twilight
Moon
Length of Visible Light
Length of Day
Tomorrow will be .
, % of the Moon is Illuminated

Today's Extremes

State Highs State Lows

Community

WunderPhotos

Category 6

Welcome to Category 6. This is the collective home for Weather Underground's featured writeups by Dr. Jeff Masters (right), Bob Henson (left), Chris Burt, and other regular contributors.

Nearby

Air Quality

  Air Quality AQ Index Pollutant
Not available.

Snow Depth

Station Depth Elevation

Earthquake Activity

City Distance Mag. Time & Date
Minimum magnitude displayed is 2.5.

Coastal Water Temperatures

Place Temperature

Stations

Nearby Weather Stations

Station Location Temp. Windchill Dew Point Humidity Wind Precip. Elev Updated Type
                   

Watches & Warnings

Flood Warning
Issued: 1:01 PM CST Feb. 21, 2018 – National Weather Service

The Flood Warning continues for
the Illinois River at Peoria.
* From Thursday morning until further notice.
* At 1245 PM Wednesday the stage was 15.1 feet.
* Flood stage is 18.0 feet.
* Moderate flooding is forecast.
* Forecast... rise above flood stage by tomorrow morning and continue
to rise to near 26.5 feet by Sunday morning.
* Impact... at 26.5 feet... several houses in Rome and Chillicothe
become isolated. Homes on sunset Dr. Between north Ave. And Collins
Ave... 4 miles SSW of Bay View gardens... are surrounded by water. In
Spring Bay... North Lake street from Missouri St. To Zimmerman Rd.
Is flooded.



                  Fld observed forecast 6am
location stg stg day time Thu Fri Sat

Illinois River
Peoria 18 15.1 Wed 1 PM 17.5 21.3 24.9



Lat... Lon 4093 8952 4093 8941 4062 8957 4047 8980
      4053 8988 4068 8965